createdAt,value
2022-08-03T00:01:37.164Z,13.00
2022-08-03T00:04:05.591Z,8.88
2022-08-03T00:06:36.990Z,7.60
2022-08-03T00:09:05.652Z,12.20
2022-08-03T00:11:33.488Z,9.70
2022-08-03T00:14:01.250Z,8.65
2022-08-03T00:16:28.524Z,8.75
2022-08-03T00:18:55.879Z,9.88
2022-08-03T00:21:23.062Z,7.40
2022-08-03T00:23:51.419Z,9.00
2022-08-03T00:26:21.015Z,9.68
2022-08-03T00:28:48.948Z,9.82
2022-08-03T00:31:16.701Z,14.35
2022-08-03T00:33:58.294Z,13.48
2022-08-03T00:36:28.726Z,9.13
2022-08-03T00:38:56.447Z,9.65
2022-08-03T00:41:23.703Z,7.93
2022-08-03T00:43:50.897Z,11.05
2022-08-03T00:46:21.675Z,11.82
2022-08-03T00:48:52.966Z,10.52
2022-08-03T00:51:21.636Z,11.77
2022-08-03T00:53:49.761Z,11.07
2022-08-03T00:56:17.527Z,8.23
2022-08-03T00:58:46.115Z,9.00
2022-08-03T01:01:14.501Z,11.60
2022-08-03T01:03:42.223Z,10.85
2022-08-03T01:06:16.863Z,8.25
2022-08-03T01:08:50.042Z,10.27
2022-08-03T01:11:34.432Z,11.73
2022-08-03T01:14:18.777Z,8.50
2022-08-03T01:16:52.196Z,9.25
2022-08-03T01:19:34.453Z,10.23
2022-08-03T01:22:07.649Z,10.63
2022-08-03T01:24:59.535Z,12.77
2022-08-03T01:27:43.246Z,10.73
2022-08-03T01:30:12.259Z,9.27
2022-08-03T01:33:00.997Z,7.72
2022-08-03T01:35:47.605Z,12.43
2022-08-03T01:38:27.097Z,11.45
2022-08-03T01:40:55.515Z,11.90
2022-08-03T01:43:55.284Z,9.10
2022-08-03T01:46:20.558Z,14.07
2022-08-03T01:48:49.106Z,12.13
2022-08-03T01:51:19.526Z,12.77
2022-08-03T01:53:50.075Z,10.25
2022-08-03T01:56:20.051Z,10.80
2022-08-03T01:58:49.634Z,14.25
2022-08-03T02:01:17.920Z,11.73
2022-08-03T02:03:59.945Z,12.15
2022-08-03T02:07:00.507Z,10.02
2022-08-03T02:09:20.830Z,11.45
2022-08-03T02:11:50.906Z,10.17
2022-08-03T02:14:19.964Z,11.02
2022-08-03T02:16:49.015Z,13.27
2022-08-03T02:19:18.085Z,10.88
2022-08-03T02:21:57.112Z,8.50
2022-08-03T02:24:29.954Z,10.55
2022-08-03T02:26:58.692Z,10.30
2022-08-03T02:29:39.299Z,8.82
2022-08-03T02:32:14.587Z,6.25
2022-08-03T02:34:46.067Z,7.75
2022-08-03T02:37:14.761Z,10.48
2022-08-03T02:39:43.755Z,9.02
2022-08-03T02:42:13.467Z,6.60
2022-08-03T02:44:47.478Z,9.35
2022-08-03T02:47:16.891Z,8.93
2022-08-03T02:49:50.335Z,9.55
2022-08-03T02:52:24.445Z,10.93
2022-08-03T02:54:56.340Z,9.13
2022-08-03T02:57:25.486Z,10.43
2022-08-03T02:59:56.181Z,9.93
2022-08-03T03:02:24.897Z,11.38
2022-08-03T03:04:59.700Z,8.88
2022-08-03T03:07:51.649Z,8.50
2022-08-03T03:10:22.681Z,9.68
2022-08-03T03:12:56.644Z,9.93
2022-08-03T03:15:25.710Z,10.27
2022-08-03T03:17:53.662Z,10.57
2022-08-03T03:20:29.574Z,8.82
2022-08-03T03:23:00.331Z,8.70
2022-08-03T03:25:32.384Z,10.43
2022-08-03T03:28:03.685Z,12.98
2022-08-03T03:30:34.519Z,9.88
2022-08-03T03:33:02.825Z,12.60
2022-08-03T03:35:30.645Z,9.52
2022-08-03T03:38:04.350Z,11.20
2022-08-03T03:40:31.642Z,10.63
2022-08-03T03:42:59.014Z,11.60
2022-08-03T03:45:27.283Z,10.43
2022-08-03T03:47:54.519Z,8.87
2022-08-03T03:50:25.260Z,12.70
2022-08-03T03:52:52.461Z,10.23
2022-08-03T03:55:19.933Z,12.13
2022-08-03T03:57:47.180Z,12.98
2022-08-03T04:00:15.846Z,10.88
2022-08-03T04:02:43.191Z,9.67
2022-08-03T04:05:29.320Z,11.27
2022-08-03T04:08:37.055Z,11.77
2022-08-03T04:11:11.608Z,13.20
2022-08-03T04:13:50.918Z,8.70
2022-08-03T04:16:23.834Z,10.52
2022-08-03T04:18:59.005Z,10.02
2022-08-03T04:21:26.633Z,12.30
2022-08-03T04:24:02.303Z,11.73
2022-08-03T04:26:33.034Z,11.32
2022-08-03T04:29:00.892Z,8.75
2022-08-03T04:31:29.970Z,13.57
2022-08-03T04:33:57.472Z,15.77
2022-08-03T04:36:31.771Z,13.23
2022-08-03T04:39:30.279Z,11.30
2022-08-03T04:42:08.122Z,10.77
2022-08-03T04:44:39.040Z,10.40
2022-08-03T04:47:06.825Z,14.20
2022-08-03T04:49:36.441Z,14.80
2022-08-03T04:52:05.053Z,13.98
2022-08-03T04:54:39.777Z,15.27
2022-08-03T04:57:06.946Z,14.02
2022-08-03T04:59:36.194Z,11.93
2022-08-03T05:02:08.188Z,12.45
2022-08-03T05:04:35.402Z,15.70
2022-08-03T05:07:12.398Z,14.35
2022-08-03T05:09:49.777Z,15.23
2022-08-03T05:12:18.235Z,11.77
2022-08-03T05:14:45.582Z,13.27
2022-08-03T05:17:12.770Z,17.23
2022-08-03T05:19:39.969Z,12.85
2022-08-03T05:22:07.169Z,12.55
2022-08-03T05:24:34.356Z,12.75
2022-08-03T05:27:01.612Z,12.82
2022-08-03T05:29:28.802Z,10.88
2022-08-03T05:31:56.207Z,11.55
2022-08-03T05:34:23.389Z,13.90
2022-08-03T05:36:50.601Z,12.57
2022-08-03T05:39:17.809Z,14.32
2022-08-03T05:41:44.938Z,11.98
2022-08-03T05:44:12.115Z,12.63
2022-08-03T05:46:39.312Z,15.50
2022-08-03T05:49:06.610Z,15.63
2022-08-03T05:51:33.913Z,16.08
2022-08-03T05:54:01.095Z,16.38
2022-08-03T05:56:28.427Z,14.02
2022-08-03T05:58:55.680Z,14.85
2022-08-03T06:01:23.022Z,13.50
2022-08-03T06:03:51.987Z,18.40
2022-08-03T06:06:19.393Z,19.27
2022-08-03T06:08:48.628Z,19.67
2022-08-03T06:11:16.540Z,18.95
2022-08-03T06:13:44.222Z,19.17
2022-08-03T06:16:11.489Z,21.08
2022-08-03T06:18:40.450Z,19.77
2022-08-03T06:21:14.110Z,22.17
2022-08-03T06:23:53.851Z,18.88
2022-08-03T06:26:24.815Z,18.75
2022-08-03T06:28:54.316Z,22.92
2022-08-03T06:31:24.050Z,17.00
2022-08-03T06:34:34.225Z,20.15
2022-08-03T06:36:39.114Z,17.90
2022-08-03T06:39:06.361Z,17.63
2022-08-03T06:41:38.132Z,18.45
2022-08-03T06:44:08.876Z,21.83
2022-08-03T06:46:37.612Z,16.88
2022-08-03T06:49:04.930Z,17.88
2022-08-03T06:52:03.849Z,19.37
2022-08-03T06:54:19.523Z,19.52
2022-08-03T06:56:46.716Z,19.85
2022-08-03T07:00:10.527Z,25.60
2022-08-03T07:02:01.059Z,20.48
2022-08-03T07:04:28.256Z,23.52
2022-08-03T07:06:55.473Z,23.05
2022-08-03T07:09:22.667Z,19.38
2022-08-03T07:11:49.870Z,21.20
2022-08-03T07:14:17.095Z,22.67
2022-08-03T07:16:44.291Z,22.45
2022-08-03T07:19:12.230Z,23.73
2022-08-03T07:21:39.395Z,24.90
2022-08-03T07:24:06.685Z,20.17
2022-08-03T07:26:34.011Z,22.88
2022-08-03T07:29:01.587Z,22.30
2022-08-03T07:31:28.801Z,21.70
2022-08-03T07:34:01.745Z,19.52
2022-08-03T07:36:28.995Z,21.95
2022-08-03T07:38:58.063Z,16.40
2022-08-03T07:41:25.270Z,22.25
2022-08-03T07:43:52.456Z,21.95
2022-08-03T07:46:19.685Z,21.45
2022-08-03T07:48:46.901Z,20.98
2022-08-03T07:51:14.151Z,22.15
2022-08-03T07:53:47.378Z,16.83
2022-08-03T07:56:16.659Z,19.95
2022-08-03T07:58:43.889Z,17.33
2022-08-03T08:01:11.185Z,21.25
2022-08-03T08:03:53.060Z,22.70
2022-08-03T08:06:21.647Z,20.05
2022-08-03T08:08:51.616Z,18.13
2022-08-03T08:11:18.801Z,21.00
2022-08-03T08:13:45.979Z,24.50
2022-08-03T08:16:13.179Z,18.83
2022-08-03T08:18:40.358Z,21.48
2022-08-03T08:21:07.510Z,21.70
2022-08-03T08:23:42.771Z,18.03
2022-08-03T08:26:11.817Z,16.77
2022-08-03T08:28:39.341Z,19.02
2022-08-03T08:31:08.482Z,20.17
2022-08-03T08:34:03.087Z,18.98
2022-08-03T08:36:24.035Z,19.98
2022-08-03T08:38:51.391Z,22.25
2022-08-03T08:41:19.325Z,18.13
2022-08-03T08:43:46.495Z,15.73
2022-08-03T08:46:23.055Z,20.42
2022-08-03T08:48:52.809Z,16.20
2022-08-03T08:51:22.262Z,15.45
2022-08-03T08:53:53.733Z,16.80
2022-08-03T08:56:25.992Z,14.13
2022-08-03T08:58:58.068Z,16.38
2022-08-03T09:01:25.448Z,16.15
2022-08-03T09:03:54.217Z,14.43
2022-08-03T09:06:22.937Z,16.60
2022-08-03T09:08:50.194Z,15.80
2022-08-03T09:11:21.548Z,16.50
2022-08-03T09:14:36.773Z,15.93
2022-08-03T09:17:04.183Z,15.68
2022-08-03T09:19:33.299Z,14.98
2022-08-03T09:22:14.292Z,19.00
2022-08-03T09:25:23.744Z,17.95
2022-08-03T09:27:51.785Z,16.35
2022-08-03T09:30:34.705Z,14.20
2022-08-03T09:33:04.782Z,13.45
2022-08-03T09:35:53.269Z,16.47
2022-08-03T09:38:26.290Z,17.98
2022-08-03T09:40:59.029Z,16.03
2022-08-03T09:43:27.486Z,16.48
2022-08-03T09:46:03.733Z,13.52
2022-08-03T09:48:34.939Z,13.00
2022-08-03T09:51:14.334Z,20.63
2022-08-03T09:53:59.758Z,16.98
2022-08-03T09:56:46.854Z,17.08
2022-08-03T09:59:24.111Z,14.75
2022-08-03T10:01:54.517Z,13.55
2022-08-03T10:04:24.165Z,16.35
2022-08-03T10:07:10.800Z,15.13
2022-08-03T10:09:38.665Z,15.40
2022-08-03T10:12:10.822Z,11.70
2022-08-03T10:14:40.431Z,16.00
2022-08-03T10:17:09.441Z,13.20
2022-08-03T10:19:36.855Z,15.93
2022-08-03T10:22:22.482Z,14.40
2022-08-03T10:24:54.097Z,14.38
2022-08-03T10:27:23.715Z,13.37
2022-08-03T10:29:54.434Z,17.50
2022-08-03T10:32:42.171Z,18.67
2022-08-03T10:35:20.216Z,16.38
2022-08-03T10:38:02.058Z,16.33
2022-08-03T10:40:53.509Z,15.57
2022-08-03T10:43:28.342Z,15.88
2022-08-03T10:45:56.653Z,15.67
2022-08-03T10:48:25.631Z,16.73
2022-08-03T10:50:53.455Z,16.05
2022-08-03T10:53:36.455Z,16.02
2022-08-03T10:56:28.626Z,15.65
2022-08-03T10:59:10.656Z,15.20
2022-08-03T11:02:00.164Z,14.82
2022-08-03T11:04:30.181Z,16.85
2022-08-03T11:07:26.947Z,15.50
2022-08-03T11:09:56.239Z,14.07
2022-08-03T11:12:32.634Z,12.53
2022-08-03T11:15:05.024Z,21.05
2022-08-03T11:17:55.467Z,15.63
2022-08-03T11:20:48.334Z,14.20
2022-08-03T11:23:17.908Z,13.82
2022-08-03T11:26:14.427Z,10.60
2022-08-03T11:28:44.419Z,14.52
2022-08-03T11:31:48.568Z,9.25
2022-08-03T11:34:14.490Z,14.13
2022-08-03T11:37:27.566Z,13.90
2022-08-03T11:39:58.778Z,13.93
2022-08-03T11:42:26.970Z,12.98
2022-08-03T11:44:56.692Z,11.23
2022-08-03T11:47:27.255Z,14.57
2022-08-03T11:50:01.833Z,16.23
2022-08-03T11:52:35.701Z,14.83
2022-08-03T11:55:08.195Z,13.90
2022-08-03T11:59:12.828Z,12.32
2022-08-03T12:00:30.303Z,12.97
2022-08-03T12:03:00.158Z,13.43
2022-08-03T12:05:51.193Z,12.13
2022-08-03T12:08:31.224Z,12.45
2022-08-03T12:11:00.496Z,11.90
2022-08-03T12:14:30.064Z,12.10
2022-08-03T12:16:31.083Z,12.33
2022-08-03T12:19:04.966Z,13.35
2022-08-03T12:21:32.591Z,10.48
2022-08-03T12:24:02.603Z,11.38
2022-08-03T12:26:42.063Z,12.38
2022-08-03T12:29:17.366Z,11.82
2022-08-03T12:31:44.694Z,11.63
2022-08-03T12:34:12.293Z,10.98
2022-08-03T12:36:51.341Z,13.48
2022-08-03T12:39:24.086Z,13.35
2022-08-03T12:41:54.434Z,10.43
2022-08-03T12:44:35.808Z,9.52
2022-08-03T12:47:04.450Z,10.73
2022-08-03T12:49:46.077Z,8.48
2022-08-03T12:52:13.492Z,10.80
2022-08-03T12:54:41.082Z,10.98
2022-08-03T12:57:11.017Z,10.52
2022-08-03T12:59:52.862Z,12.43
2022-08-03T13:02:26.289Z,10.32
2022-08-03T13:04:54.939Z,10.02
2022-08-03T13:07:23.050Z,10.27
2022-08-03T13:09:55.712Z,12.52
2022-08-03T13:12:27.624Z,9.32
2022-08-03T13:15:01.913Z,9.43
2022-08-03T13:17:29.139Z,7.30
2022-08-03T13:19:56.398Z,10.90
2022-08-03T13:22:27.144Z,8.57
2022-08-03T13:24:58.508Z,10.17
2022-08-03T13:28:05.494Z,7.78
2022-08-03T13:30:22.707Z,7.18
2022-08-03T13:32:58.612Z,6.93
2022-08-03T13:35:26.114Z,8.55
2022-08-03T13:37:53.333Z,10.23
2022-08-03T13:40:23.623Z,9.65
2022-08-03T13:42:51.111Z,8.57
2022-08-03T13:45:18.260Z,9.57
2022-08-03T13:47:45.615Z,7.27
2022-08-03T13:50:12.902Z,8.35
2022-08-03T13:52:40.093Z,11.05
2022-08-03T13:55:08.338Z,10.00
2022-08-03T13:58:03.132Z,9.02
2022-08-03T14:00:27.150Z,10.57
2022-08-03T14:03:13.669Z,9.48
2022-08-03T14:05:42.689Z,7.73
2022-08-03T14:08:10.737Z,8.50
2022-08-03T14:10:39.984Z,6.13
2022-08-03T14:13:07.469Z,7.50
2022-08-03T14:15:37.571Z,8.18
2022-08-03T14:18:07.347Z,8.38
2022-08-03T14:20:50.247Z,6.18
2022-08-03T14:23:21.627Z,8.98
2022-08-03T14:25:51.660Z,8.20
2022-08-03T14:28:24.719Z,7.97
2022-08-03T14:30:53.730Z,7.05
2022-08-03T14:33:21.069Z,8.57
2022-08-03T14:35:48.972Z,10.52
2022-08-03T14:38:16.963Z,7.80
2022-08-03T14:40:44.479Z,9.00
2022-08-03T14:43:11.790Z,8.17
2022-08-03T14:45:39.745Z,10.10
2022-08-03T14:50:34.602Z,8.57
2022-08-03T14:50:55.306Z,9.32
2022-08-03T14:53:22.693Z,7.57
2022-08-03T14:55:51.958Z,9.07
2022-08-03T14:58:23.598Z,9.13
2022-08-03T15:00:53.962Z,7.95
2022-08-03T15:03:25.180Z,7.60
2022-08-03T15:05:56.580Z,7.18
2022-08-03T15:08:26.116Z,7.75
2022-08-03T15:10:54.693Z,7.67
2022-08-03T15:13:22.395Z,10.10
2022-08-03T15:15:49.965Z,9.53
2022-08-03T15:18:17.497Z,9.23
2022-08-03T15:20:46.310Z,10.35
2022-08-03T15:23:16.424Z,9.30
2022-08-03T15:26:29.395Z,10.20
2022-08-03T15:28:32.741Z,8.95
2022-08-03T15:31:00.623Z,10.90
2022-08-03T15:33:28.573Z,9.25
2022-08-03T15:35:56.528Z,6.22
2022-08-03T15:38:25.859Z,7.47
2022-08-03T15:40:54.851Z,9.55
2022-08-03T15:43:23.205Z,7.63
2022-08-03T15:46:19.149Z,4.87
2022-08-03T15:48:38.171Z,4.97
2022-08-03T15:51:06.068Z,7.35
2022-08-03T15:53:33.663Z,4.78
2022-08-03T15:56:03.328Z,4.57
2022-08-03T15:59:03.758Z,6.53
2022-08-03T16:01:21.380Z,4.80
2022-08-03T16:03:48.687Z,9.10
2022-08-03T16:06:15.932Z,7.03
2022-08-03T16:08:43.345Z,5.22
2022-08-03T16:11:10.953Z,5.30
2022-08-03T16:14:12.008Z,7.00
2022-08-03T16:16:25.319Z,5.33
2022-08-03T16:18:52.993Z,5.80
2022-08-03T16:21:21.781Z,5.82
2022-08-03T16:23:51.866Z,5.53
2022-08-03T16:26:19.477Z,5.75
2022-08-03T16:28:46.688Z,5.22
2022-08-03T16:31:13.869Z,6.20
2022-08-03T16:33:41.050Z,5.30
2022-08-03T16:36:08.307Z,4.90
2022-08-03T16:38:35.667Z,4.18
2022-08-03T16:41:04.665Z,7.00
2022-08-03T16:43:34.647Z,4.88
2022-08-03T16:46:01.850Z,4.63
2022-08-03T16:48:29.100Z,5.53
2022-08-03T16:50:56.431Z,4.73
2022-08-03T16:53:51.540Z,5.78
2022-08-03T16:56:11.027Z,5.63
2022-08-03T16:58:42.243Z,3.90
2022-08-03T17:01:24.176Z,6.85
2022-08-03T17:04:03.521Z,4.55
2022-08-03T17:06:36.346Z,5.80
2022-08-03T17:09:09.820Z,6.45
2022-08-03T17:11:46.578Z,5.13
2022-08-03T17:14:16.714Z,6.53
2022-08-03T17:16:52.734Z,5.07
2022-08-03T17:19:23.992Z,5.38
2022-08-03T17:22:10.035Z,7.15
2022-08-03T17:24:42.280Z,4.13
2022-08-03T17:28:42.291Z,5.70
2022-08-03T17:30:10.605Z,4.40
2022-08-03T17:32:52.707Z,5.30
2022-08-03T17:35:34.661Z,5.87
2022-08-03T17:38:07.696Z,5.15
2022-08-03T17:40:38.059Z,6.93
2022-08-03T17:44:13.477Z,5.45
2022-08-03T17:45:54.746Z,5.68
2022-08-03T17:48:25.179Z,5.63
2022-08-03T17:51:00.559Z,7.77
2022-08-03T17:53:34.943Z,7.00
2022-08-03T17:56:40.769Z,5.73
2022-08-03T17:59:08.999Z,6.90
2022-08-03T18:02:26.490Z,5.10
2022-08-03T18:05:15.943Z,5.78
2022-08-03T18:08:01.544Z,6.78
2022-08-03T18:10:34.735Z,4.15
2022-08-03T18:13:24.471Z,13.07
2022-08-03T18:15:57.100Z,4.60
2022-08-03T18:18:36.369Z,5.87
2022-08-03T18:21:09.429Z,6.15
2022-08-03T18:23:50.088Z,5.35
2022-08-03T18:26:18.406Z,7.15
2022-08-03T18:28:46.471Z,6.05
2022-08-03T18:31:59.571Z,7.57
2022-08-03T18:34:18.323Z,6.82
2022-08-03T18:36:52.717Z,6.15
2022-08-03T18:39:23.303Z,5.55
2022-08-03T18:41:52.056Z,6.82
2022-08-03T18:44:45.547Z,5.57
2022-08-03T18:47:52.314Z,4.43
2022-08-03T18:50:39.059Z,5.57
2022-08-03T18:53:23.610Z,5.53
2022-08-03T18:56:25.528Z,6.63
2022-08-03T18:59:11.172Z,6.18
2022-08-03T19:02:00.915Z,8.47
2022-08-03T19:04:41.137Z,5.13
2022-08-03T19:07:26.012Z,7.47
2022-08-03T19:10:04.556Z,6.97
2022-08-03T19:12:50.392Z,5.27
2022-08-03T19:15:36.143Z,6.57
2022-08-03T19:18:10.424Z,7.70
2022-08-03T19:20:38.172Z,4.47
2022-08-03T19:23:12.196Z,8.07
2022-08-03T19:25:41.791Z,4.27
2022-08-03T19:28:09.065Z,6.93
2022-08-03T19:30:39.651Z,7.45
2022-08-03T19:33:12.121Z,4.43
2022-08-03T19:35:51.399Z,5.77
2022-08-03T19:38:28.622Z,7.18
2022-08-03T19:41:00.653Z,5.20
2022-08-03T19:43:53.391Z,6.20
2022-08-03T19:46:30.939Z,12.32
2022-08-03T19:49:26.160Z,5.38
2022-08-03T19:52:16.000Z,5.28
2022-08-03T19:54:53.084Z,6.68
2022-08-03T19:57:25.096Z,6.85
2022-08-03T19:59:54.284Z,6.57
2022-08-03T20:02:27.268Z,6.20
2022-08-03T20:04:56.969Z,6.90
2022-08-03T20:07:26.198Z,4.35
2022-08-03T20:09:56.724Z,6.15
2022-08-03T20:12:29.021Z,6.15
2022-08-03T20:14:59.775Z,7.30
2022-08-03T20:17:57.068Z,5.77
2022-08-03T20:20:24.113Z,6.93
2022-08-03T20:22:57.757Z,7.30
2022-08-03T20:25:57.029Z,6.43
2022-08-03T20:28:50.348Z,5.68
2022-08-03T20:31:30.589Z,6.60
2022-08-03T20:34:05.351Z,6.30
2022-08-03T20:36:32.706Z,7.40
2022-08-03T20:39:00.071Z,6.20
2022-08-03T20:41:27.404Z,5.05
2022-08-03T20:43:54.721Z,6.55
2022-08-03T20:46:29.650Z,7.43
2022-08-03T20:49:03.744Z,6.38
2022-08-03T20:51:52.707Z,6.85
2022-08-03T20:54:30.532Z,5.47
2022-08-03T20:57:03.781Z,6.70
2022-08-03T20:59:46.961Z,4.18
2022-08-03T21:02:29.083Z,7.38
2022-08-03T21:05:08.534Z,6.17
2022-08-03T21:08:05.175Z,5.47
2022-08-03T21:10:37.881Z,5.27
2022-08-03T21:16:06.246Z,7.30
2022-08-03T21:18:43.001Z,7.37
2022-08-03T21:21:14.557Z,7.93
2022-08-03T21:23:48.086Z,8.25
2022-08-03T21:26:19.672Z,6.20
2022-08-03T21:28:49.066Z,8.15
2022-08-03T21:31:25.296Z,6.05
2022-08-03T21:33:59.466Z,7.03
2022-08-03T21:36:28.665Z,7.63
2022-08-03T21:38:57.450Z,4.60
2022-08-03T21:41:30.607Z,9.93
2022-08-03T21:43:58.804Z,6.68
2022-08-03T21:46:29.465Z,6.90
2022-08-03T21:50:06.894Z,8.43
2022-08-03T21:51:50.366Z,20.35
2022-08-03T21:54:20.693Z,12.03
2022-08-03T21:56:50.854Z,13.25
2022-08-03T21:59:19.845Z,8.13
2022-08-03T22:01:48.821Z,7.57
2022-08-03T22:04:50.101Z,6.93
2022-08-03T22:07:10.219Z,8.63
2022-08-03T22:09:37.433Z,5.55
2022-08-03T22:12:05.305Z,4.80
2022-08-03T22:14:33.274Z,7.68
2022-08-03T22:17:00.791Z,8.60
2022-08-03T22:19:33.353Z,7.63
2022-08-03T22:22:04.470Z,5.88
2022-08-03T22:24:32.653Z,7.00
2022-08-03T22:27:21.174Z,8.45
2022-08-03T22:29:50.598Z,5.07
2022-08-03T22:32:17.851Z,8.65
2022-08-03T22:34:47.524Z,5.60
2022-08-03T22:37:18.376Z,6.72
2022-08-03T22:39:46.222Z,7.25
2022-08-03T22:42:13.698Z,7.85
2022-08-03T22:44:40.968Z,5.03
2022-08-03T22:47:10.661Z,7.13
2022-08-03T22:49:38.367Z,6.90
2022-08-03T22:52:07.339Z,7.63
2022-08-03T22:54:35.701Z,6.13
2022-08-03T22:57:04.320Z,7.88
2022-08-03T22:59:40.698Z,7.55
2022-08-03T23:02:20.397Z,7.03
2022-08-03T23:04:51.931Z,6.55
2022-08-03T23:07:30.673Z,6.17
2022-08-03T23:10:00.419Z,5.65
2022-08-03T23:12:29.604Z,7.05
2022-08-03T23:15:01.297Z,6.78
2022-08-03T23:17:30.994Z,7.15
2022-08-03T23:20:09.255Z,6.20
2022-08-03T23:22:39.721Z,6.68
2022-08-03T23:25:10.846Z,7.27
2022-08-03T23:27:41.123Z,6.95
2022-08-03T23:30:10.096Z,7.28
2022-08-03T23:32:37.950Z,6.45
2022-08-03T23:36:22.621Z,6.40
2022-08-03T23:38:21.828Z,6.05
2022-08-03T23:40:51.268Z,7.07
2022-08-03T23:43:47.638Z,7.80
2022-08-03T23:46:08.804Z,6.55
2022-08-03T23:48:36.015Z,6.43
2022-08-03T23:51:09.985Z,7.82
2022-08-03T23:53:47.657Z,9.93
2022-08-03T23:56:59.650Z,7.15
2022-08-03T23:59:29.775Z,8.05
